Latest Weather Observations for Sydney Harbour

IDN60801

Issued at 1:12 am EDT Monday 26 October 2020 (issued every 10 minutes, with the page automatically refreshed every 10 minutes)

About weather observations | Map of weather stations | Latest weather observations for NSW | Other Formats
Station Details ID: 066196 Name: WEDDING CAKE WEST Lat: -33.84 Lon: 151.26 Height: 6.0 m
Data from the previous 72 hours. | See also: Recent months at Sydney Harbour
Date/Time
EDT
Temp
°C
App
Temp
°C
Dew
Point
°C
Rel
Hum
%
Delta-T
°C
Wind Press
QNH
hPa
Press
MSL
hPa
Rain since
9am
mm
Dir  Spd
km/h
Gust
km/h
Spd
kts
Gust
kts
26/01:08am 15.3 - - - - S 41 59 22 32 - - -
26/01:00am 15.5 - - - - S 44 59 24 32 - - -
26/12:30am 15.5 - - - - S 43 59 23 32 - - -
26/12:00am 15.3 - - - - S 43 57 23 31 - - -
 
Date/Time
EDT
Temp
°C
App
Temp
°C
Dew
Point
°C
Rel
Hum
%
Delta-T
°C
Wind Press
QNH
hPa
Press
MSL
hPa
Rain since
9am
mm
Dir  Spd
km/h
Gust
km/h
Spd
kts
Gust
kts
25/11:30pm 15.4 - - - - S 46 63 25 34 - - -
25/11:09pm 15.8 - - - - S 46 65 25 35 - - -
25/11:00pm 15.1 - - - - S 48 63 26 34 - - -
25/10:30pm 15.8 - - - - S 44 61 24 33 - - -
25/10:12pm 15.8 - - - - S 46 65 25 35 - - -
25/10:00pm 15.6 - - - - S 46 61 25 33 - - -
25/09:30pm 16.3 - - - - S 46 61 25 33 - - -
25/09:00pm 16.0 - - - - SSW 43 56 23 30 - - -
25/08:30pm 15.9 - - - - S 39 50 21 27 - - -
25/08:00pm 15.7 - - - - S 43 56 23 30 - - -
25/07:48pm 15.6 - - - - SSW 35 59 19 32 - - -
25/07:30pm 15.4 - - - - SSW 33 46 18 25 - - -
25/07:00pm 15.3 - - - - S 35 54 19 29 - - -
25/06:49pm 14.5 - - - - S 43 63 23 34 - - -
25/06:30pm 14.1 - - - - SSW 41 57 22 31 - - -
25/06:29pm 14.4 - - - - SSW 39 57 21 31 - - -
25/06:00pm 13.9 - - - - SSW 43 52 23 28 - - -
25/05:52pm 13.5 - - - - SSW 39 46 21 25 - - -
25/05:30pm 13.6 - - - - SW 33 44 18 24 - - -
25/05:00pm 13.6 - - - - SW 39 46 21 25 - - -
25/04:30pm 13.6 - - - - SW 43 54 23 29 - - -
25/04:00pm 13.4 - - - - SW 41 52 22 28 - - -
25/03:30pm 13.0 - - - - SSW 39 50 21 27 - - -
25/03:00pm 13.8 - - - - SSW 39 48 21 26 - - -
25/02:30pm 14.0 - - - - SSW 39 48 21 26 - - -
25/02:00pm 13.4 - - - - SSW 41 56 22 30 - - -
25/01:30pm 13.6 - - - - SSW 39 52 21 28 - - -
25/01:00pm 14.3 - - - - SSW 39 52 21 28 - - -
25/12:30pm 14.2 - - - - SSW 43 56 23 30 - - -
25/12:11pm 14.4 - - - - SSW 39 57 21 31 - - -
25/12:00pm 14.1 - - - - SSW 39 54 21 29 - - -
25/11:40am 14.0 - - - - SSW 39 63 21 34 - - -
25/11:30am 14.3 - - - - SSW 39 50 21 27 - - -
25/11:00am 14.3 - - - - SSW 39 50 21 27 - - -
25/10:30am 14.5 - - - - S 43 56 23 30 - - -
25/10:00am 14.6 - - - - S 43 54 23 29 - - -
25/09:30am 14.6 - - - - S 39 52 21 28 - - -
25/09:00am 14.8 - - - - SSW 41 54 22 29 - - -
25/08:30am 15.1 - - - - S 39 56 21 30 - - -
25/08:00am 15.5 - - - - S 39 54 21 29 - - -
25/07:30am 15.5 - - - - S 37 52 20 28 - - -
25/07:00am 15.2 - - - - S 41 50 22 27 - - -
25/06:35am 15.2 - - - - S 39 57 21 31 - - -
25/06:30am 15.5 - - - - S 39 46 21 25 - - -
25/06:09am 15.5 - - - - S 39 57 21 31 - - -
25/06:00am 15.4 - - - - S 39 56 21 30 - - -
25/05:30am 15.6 - - - - S 37 52 20 28 - - -
25/05:00am 15.8 - - - - S 37 54 20 29 - - -
25/04:30am 15.9 - - - - S 35 52 19 28 - - -
25/04:28am 15.7 - - - - S 33 52 18 28 - - -
25/04:00am 15.7 - - - - SSW 33 43 18 23 - - -
25/03:30am 15.5 - - - - S 35 50 19 27 - - -
25/03:00am 15.4 - - - - S 37 50 20 27 - - -
25/02:30am 15.6 - - - - S 37 44 20 24 - - -
25/02:00am 15.7 - - - - S 39 52 21 28 - - -
25/01:30am 15.8 - - - - S 35 44 19 24 - - -
25/01:00am 15.9 - - - - S 41 56 22 30 - - -
25/12:30am 16.1 - - - - SSW 43 59 23 32 - - -
25/12:20am 15.2 - - - - SSW 46 65 25 35 - - -
25/12:00am 16.5 - - - - SSW 48 61 26 33 - - -
 
Date/Time
EDT
Temp
°C
App
Temp
°C
Dew
Point
°C
Rel
Hum
%
Delta-T
°C
Wind Press
QNH
hPa
Press
MSL
hPa
Rain since
9am
mm
Dir  Spd
km/h
Gust
km/h
Spd
kts
Gust
kts
24/11:38pm 18.3 - - - - SSW 20 63 11 34 - - -
24/11:37pm 19.4 - - - - SW 17 39 9 21 - - -
24/11:30pm 19.1 - - - - SW 9 11 5 6 - - -
24/11:00pm 18.7 - - - - NNW 9 11 5 6 - - -
24/10:30pm 18.9 - - - - N 13 13 7 7 - - -
24/10:00pm 18.9 - - - - N 15 22 8 12 - - -
24/09:30pm 19.1 - - - - N 17 20 9 11 - - -
24/09:00pm 19.5 - - - - N 17 20 9 11 - - -
24/08:30pm 19.7 - - - - N 17 20 9 11 - - -
24/08:00pm 20.1 - - - - N 20 26 11 14 - - -
24/07:30pm 19.7 - - - - N 22 30 12 16 - - -
24/07:00pm 20.0 - - - - NNE 20 22 11 12 - - -
24/06:30pm 19.9 - - - - NNE 17 20 9 11 - - -
24/06:00pm 19.8 - - - - NNE 9 13 5 7 - - -
24/05:30pm 19.6 - - - - NNE 15 17 8 9 - - -
24/05:00pm 19.5 - - - - NNE 24 30 13 16 - - -
24/04:30pm 19.5 - - - - NNE 24 30 13 16 - - -
24/04:00pm 19.9 - - - - NNE 15 20 8 11 - - -
24/03:30pm 19.7 - - - - NNE 20 24 11 13 - - -
24/03:00pm 19.8 - - - - NNE 15 17 8 9 - - -
24/02:30pm 19.9 - - - - NNE 19 20 10 11 - - -
24/02:00pm 19.7 - - - - NNE 28 30 15 16 - - -
24/01:30pm 19.9 - - - - NNE 32 35 17 19 - - -
24/01:00pm 20.6 - - - - NNE 26 30 14 16 - - -
24/12:30pm 20.1 - - - - NNE 26 30 14 16 - - -
24/12:00pm 19.7 - - - - NNE 28 32 15 17 - - -
24/11:30am 20.3 - - - - NNE 28 32 15 17 - - -
24/11:00am 21.8 - - - - N 26 33 14 18 - - -
24/10:30am 23.1 - - - - N 24 33 13 18 - - -
24/10:00am 23.3 - - - - N 20 30 11 16 - - -
24/09:30am 19.9 - - - - NNE 17 19 9 10 - - -
24/09:00am 19.5 - - - - NNE 17 20 9 11 - - -
24/08:30am 19.3 - - - - NNE 24 30 13 16 - - -
24/08:00am 19.1 - - - - NNE 28 33 15 18 - - -
24/07:30am 19.3 - - - - NNE 28 32 15 17 - - -
24/07:00am 19.4 - - - - NNE 30 39 16 21 - - -
24/06:30am 19.2 - - - - NNE 22 28 12 15 - - -
24/06:00am 19.3 - - - - N 17 20 9 11 - - -
24/05:30am 19.0 - - - - NNE 9 13 5 7 - - -
24/05:00am 19.1 - - - - E 7 9 4 5 - - -
24/04:30am 19.3 - - - - N 6 9 3 5 - - -
24/04:00am 19.3 - - - - NNW 7 11 4 6 - - -
24/03:30am 19.4 - - - - N 7 11 4 6 - - -
24/03:00am 19.6 - - - - SW 9 13 5 7 - - -
24/02:30am 19.3 - - - - NNE 9 11 5 6 - - -
24/02:00am 19.4 - - - - N 15 17 8 9 - - -
24/01:30am 19.5 - - - - NNE 30 35 16 19 - - -
24/01:00am 19.5 - - - - N 28 33 15 18 - - -
24/12:30am 19.5 - - - - NNE 28 33 15 18 - - -
24/12:00am 19.7 - - - - N 28 37 15 20 - - -
 
Date/Time
EDT
Temp
°C
App
Temp
°C
Dew
Point
°C
Rel
Hum
%
Delta-T
°C
Wind Press
QNH
hPa
Press
MSL
hPa
Rain since
9am
mm
Dir  Spd
km/h
Gust
km/h
Spd
kts
Gust
kts
23/11:30pm 19.8 - - - - NNE 37 43 20 23 - - -
23/11:00pm 20.0 - - - - NNE 44 54 24 29 - - -
23/10:30pm 20.1 - - - - NNE 43 52 23 28 - - -
23/10:00pm 20.2 - - - - NNE 43 54 23 29 - - -
23/09:30pm 20.1 - - - - NNE 39 44 21 24 - - -
23/09:00pm 20.1 - - - - NNE 33 43 18 23 - - -
23/08:30pm 20.3 - - - - NNE 35 44 19 24 - - -
23/08:00pm 20.3 - - - - NNE 35 43 19 23 - - -
23/07:30pm 20.3 - - - - NNE 35 43 19 23 - - -
23/07:00pm 20.3 - - - - NNE 37 44 20 24 - - -
23/06:30pm 20.3 - - - - NNE 37 43 20 23 - - -
23/06:00pm 20.4 - - - - NNE 37 44 20 24 - - -
23/05:30pm 20.4 - - - - NNE 35 41 19 22 - - -
23/05:00pm 20.4 - - - - NNE 37 46 20 25 - - -
23/04:30pm 20.5 - - - - NNE 39 46 21 25 - - -
23/04:00pm 20.3 - - - - NNE 33 41 18 22 - - -
23/03:30pm 20.2 - - - - NNE 32 39 17 21 - - -
23/03:00pm 20.2 - - - - NNE 28 35 15 19 - - -
23/02:30pm 20.0 - - - - NE 24 30 13 16 - - -
23/02:00pm 19.9 - - - - NE 22 26 12 14 - - -
23/01:30pm 19.7 - - - - ENE 26 30 14 16 - - -
23/01:00pm 19.6 - - - - ENE 24 28 13 15 - - -
23/12:30pm 19.5 - - - - ENE 24 28 13 15 - - -
23/12:00pm 19.9 - - - - ENE 20 24 11 13 - - -
23/11:30am 20.3 - - - - ENE 17 20 9 11 - - -
23/11:00am 19.9 - - - - ENE 22 26 12 14 - - -
23/10:30am 19.7 - - - - NE 17 22 9 12 - - -
23/10:00am 19.4 - - - - NE 15 19 8 10 - - -
23/09:30am 19.5 - - - - NNE 15 17 8 9 - - -
23/09:00am 19.5 - - - - NE 17 19 9 10 - - -
23/08:30am 19.2 - - - - NNE 9 15 5 8 - - -
23/08:00am 19.0 - - - - NE 4 6 2 3 - - -
23/07:30am 18.9 - - - - NE 9 11 5 6 - - -
23/07:00am 18.6 - - - - W 6 7 3 4 - - -
23/06:30am 18.9 - - - - NNW 9 11 5 6 - - -
23/06:00am 19.1 - - - - NNW 13 17 7 9 - - -
23/05:30am 19.2 - - - - N 17 22 9 12 - - -
23/05:00am 19.1 - - - - N 19 24 10 13 - - -
23/04:30am 19.1 - - - - N 17 22 9 12 - - -
23/04:00am 19.0 - - - - NNE 15 20 8 11 - - -
23/03:30am 19.1 - - - - NNE 17 20 9 11 - - -
23/03:00am 19.2 - - - - N 20 26 11 14 - - -
23/02:30am 19.2 - - - - NNE 22 30 12 16 - - -
23/02:00am 19.3 - - - - NNE 26 32 14 17 - - -
23/01:30am 19.5 - - - - NNE 22 28 12 15 - - -

Other formats

Comma delimited format used in spreadsheet applications
http://www.bom.gov.au/fwo/IDN60801/IDN60801.95766.axf

JavaScript Object Notation format (JSON) in row-major order
http://www.bom.gov.au/fwo/IDN60801/IDN60801.95766.json

Data quality

Most of these data are generated automatically and are frequently updated. Quality checks on data are not normally performed. It is possible for incorrect values to appear. Refer to information at About Latest Weather Observations and please check the disclaimer before using these data.